Time;durP1;ratioP1;P1;durP2;ratioP2;P2;SDS_P1;SDS_P2;PMS_P1;PMS_P2;Temp;Humidity;BMP_temperature;BMP_pressure;BME280_temperature;BME280_humidity;BME280_pressure;Samples;Min_cycle;Max_cycle;Signal;HPM_P1;HPM_P2
2023/01/08 00:01:58;;;;;;;19.23;3.13;;;11.30;99.90;;;;;;5069319;28;20033;-66
2023/01/08 00:04:24;;;;;;;14.45;3.42;;;11.30;99.90;;;;;;5052261;28;20100;-65
2023/01/08 00:06:49;;;;;;;22.48;2.28;;;11.30;99.90;;;;;;5052379;28;20033;-66
2023/01/08 00:09:15;;;;;;;30.17;2.97;;;11.20;99.90;;;;;;5051879;28;20064;-66
2023/01/08 00:11:41;;;;;;;19.80;2.65;;;11.20;1.00;;;;;;5052206;28;20029;-67
2023/01/08 00:14:07;;;;;;;26.60;3.38;;;11.30;99.90;;;;;;5051485;28;20118;-67
2023/01/08 00:16:33;;;;;;;23.70;2.88;;;11.30;99.90;;;;;;5052540;28;20477;-66
2023/01/08 00:18:58;;;;;;;25.40;3.22;;;11.30;99.90;;;;;;5059345;28;20025;-66
2023/01/08 00:21:24;;;;;;;30.38;3.35;;;11.30;99.90;;;;;;5072393;28;20016;-67
2023/01/08 00:23:50;;;;;;;14.40;2.67;;;11.30;99.90;;;;;;5071120;28;20086;-67
2023/01/08 00:26:15;;;;;;;15.75;3.17;;;11.50;99.90;;;;;;5064244;28;20021;-67
2023/01/08 00:28:41;;;;;;;13.10;2.67;;;11.40;99.90;;;;;;5052048;28;20075;-65
2023/01/08 00:31:09;;;;;;;22.95;3.08;;;11.40;99.90;;;;;;5061292;28;20044;-64
2023/01/08 00:33:35;;;;;;;26.90;4.72;;;11.50;99.90;;;;;;5071694;28;20520;-66
2023/01/08 00:36:10;;;;;;;26.48;4.03;;;11.50;99.90;;;;;;5071535;28;20037;-66
2023/01/08 00:38:36;;;;;;;16.63;2.65;;;11.60;99.90;;;;;;5071815;28;20131;-65
2023/01/08 00:41:03;;;;;;;28.10;3.83;;;11.60;99.90;;;;;;5071798;28;20537;-66
2023/01/08 00:43:28;;;;;;;27.27;4.20;;;11.50;99.90;;;;;;5071600;28;20036;-65
2023/01/08 00:45:54;;;;;;;23.90;3.38;;;11.40;99.90;;;;;;5071489;28;20485;-65
2023/01/08 00:48:21;;;;;;;37.85;4.03;;;11.30;99.90;;;;;;5071817;28;20151;-66
2023/01/08 00:50:48;;;;;;;18.48;2.33;;;11.30;99.90;;;;;;5071682;28;20036;-66
2023/01/08 00:53:14;;;;;;;17.35;2.78;;;11.40;99.90;;;;;;5071626;28;20020;-65
2023/01/08 00:55:39;;;;;;;20.27;3.50;;;11.40;99.90;;;;;;5070219;28;20386;-65
2023/01/08 00:58:05;;;;;;;14.85;2.60;;;11.40;99.90;;;;;;5071422;28;20029;-65
2023/01/08 01:00:31;;;;;;;22.95;3.35;;;11.40;99.90;;;;;;5071323;28;20025;-65
2023/01/08 01:02:56;;;;;;;29.17;3.60;;;11.50;99.90;;;;;;5071285;28;20424;-65
2023/01/08 01:05:22;;;;;;;17.42;2.53;;;11.40;99.90;;;;;;5071458;28;20062;-65
2023/01/08 01:07:48;;;;;;;26.05;3.15;;;11.50;99.90;;;;;;5070878;28;20020;-65
2023/01/08 01:10:15;;;;;;;19.52;2.60;;;11.50;99.90;;;;;;5071159;28;20029;-65
2023/01/08 01:12:41;;;;;;;24.08;2.58;;;11.40;99.90;;;;;;5071272;28;20028;-66
2023/01/08 01:15:09;;;;;;;12.77;1.98;;;11.30;99.90;;;;;;5070930;28;20044;-65
2023/01/08 01:17:38;;;;;;;17.88;2.72;;;11.40;99.90;;;;;;5069747;28;20027;-66
2023/01/08 01:20:05;;;;;;;24.00;3.95;;;11.30;99.90;;;;;;5071165;28;20108;-66
2023/01/08 01:22:31;;;;;;;21.25;2.75;;;11.20;99.90;;;;;;5071004;28;20047;-67
2023/01/08 01:24:57;;;;;;;19.77;3.17;;;11.20;99.90;;;;;;5071196;28;20028;-66
2023/01/08 01:27:25;;;;;;;15.85;3.05;;;11.10;99.90;;;;;;5071128;28;20633;-66
2023/01/08 01:29:51;;;;;;;28.85;3.70;;;11.10;99.90;;;;;;5070808;28;20040;-65
2023/01/08 01:32:17;;;;;;;13.25;2.63;;;11.20;99.90;;;;;;5071022;28;20056;-66
2023/01/08 01:34:42;;;;;;;12.73;2.22;;;11.30;99.90;;;;;;5071223;28;20064;-66
2023/01/08 01:37:13;;;;;;;17.73;2.72;;;11.40;99.90;;;;;;5069543;28;20024;-66
2023/01/08 01:39:39;;;;;;;18.23;3.03;;;11.40;99.90;;;;;;5071436;28;20021;-66
2023/01/08 01:42:05;;;;;;;21.30;2.72;;;11.30;99.90;;;;;;5075088;28;20028;-66
2023/01/08 01:44:40;;;;;;;17.80;2.28;;;11.40;99.90;;;;;;5074956;28;20496;-66
2023/01/08 01:47:45;;;;;;;15.75;2.65;;;11.40;99.90;;;;;;5075221;28;20032;-66
2023/01/08 01:50:22;;;;;;;19.35;2.80;;;11.40;99.90;;;;;;5074551;28;20040;-65
2023/01/08 01:52:53;;;;;;;15.50;3.25;;;11.30;99.90;;;;;;5074841;28;20035;-66
2023/01/08 01:55:19;;;;;;;17.77;2.55;;;11.20;99.90;;;;;;5074805;28;20024;-65
2023/01/08 01:57:53;;;;;;;15.27;2.63;;;11.20;99.90;;;;;;5075023;28;20028;-66
2023/01/08 02:00:20;;;;;;;24.70;3.35;;;11.20;99.90;;;;;;5073694;28;20100;-66
2023/01/08 02:02:46;;;;;;;11.45;2.85;;;11.20;99.90;;;;;;5074615;28;20024;-66
2023/01/08 02:05:12;;;;;;;17.75;2.75;;;11.20;99.90;;;;;;5074592;28;20017;-65
2023/01/08 02:07:50;;;;;;;27.85;3.40;;;11.20;99.90;;;;;;5074728;28;20062;-65
2023/01/08 02:10:18;;;;;;;20.83;3.40;;;11.20;99.90;;;;;;5074539;28;20086;-66
2023/01/08 02:12:50;;;;;;;30.00;4.63;;;11.10;99.90;;;;;;5074298;28;20029;-66
2023/01/08 02:15:54;;;;;;;25.90;3.03;;;11.20;99.90;;;;;;5074364;28;20396;-66
2023/01/08 02:18:30;;;;;;;16.50;2.70;;;11.20;99.90;;;;;;5031628;28;20110;-66
2023/01/08 02:21:02;;;;;;;13.10;2.35;;;11.20;99.90;;;;;;5031568;28;20029;-66
2023/01/08 02:23:47;;;;;;;17.45;2.55;;;11.20;99.90;;;;;;5056143;28;20101;-66
2023/01/08 02:26:24;;;;;;;8.10;2.33;;;11.20;99.90;;;;;;5074520;28;20025;-66
2023/01/08 02:29:16;;;;;;;23.67;3.00;;;11.30;99.90;;;;;;5073057;28;20373;-65
2023/01/08 02:31:42;;;;;;;31.30;3.85;;;11.30;99.90;;;;;;5074398;28;20120;-66
2023/01/08 02:34:10;;;;;;;21.08;2.95;;;11.40;99.90;;;;;;5074961;28;20052;-69
2023/01/08 02:36:40;;;;;;;21.08;2.80;;;11.40;99.90;;;;;;5074510;28;20746;-66
2023/01/08 02:39:34;;;;;;;24.10;3.03;;;11.50;99.90;;;;;;5074237;28;20090;-66
2023/01/08 02:42:17;;;;;;;29.80;4.28;;;11.40;99.90;;;;;;5074243;28;20025;-66
2023/01/08 02:44:54;;;;;;;13.77;2.67;;;11.50;99.90;;;;;;5074231;28;20033;-66
2023/01/08 02:47:31;;;;;;;21.15;2.63;;;11.50;99.90;;;;;;5073833;28;20024;-65
2023/01/08 02:50:31;;;;;;;9.35;2.45;;;11.50;99.90;;;;;;5073870;28;20063;-66
2023/01/08 02:53:27;;;;;;;14.20;2.42;;;11.50;99.90;;;;;;5072591;28;20031;-66
2023/01/08 02:56:01;;;;;;;18.05;2.35;;;11.50;99.90;;;;;;5073836;28;20500;-65
2023/01/08 02:58:30;;;;;;;20.85;2.65;;;11.40;99.90;;;;;;5073531;28;20586;-66
2023/01/08 03:00:56;;;;;;;23.30;2.85;;;11.30;99.90;;;;;;5073645;28;20048;-66
2023/01/08 03:03:26;;;;;;;31.50;5.05;;;11.20;99.90;;;;;;5073558;28;20055;-66
2023/01/08 03:05:56;;;;;;;16.23;3.25;;;11.20;99.90;;;;;;5073619;28;20028;-67
2023/01/08 03:08:23;;;;;;;20.42;2.28;;;11.10;99.90;;;;;;5073798;28;20024;-66
2023/01/08 03:10:55;;;;;;;18.80;2.88;;;11.10;99.90;;;;;;5074111;28;20037;-68
2023/01/08 03:13:26;;;;;;;12.13;3.28;;;11.10;99.90;;;;;;5074306;28;20041;-66
2023/01/08 03:15:58;;;;;;;22.02;2.92;;;11.20;99.90;;;;;;5074376;28;20044;-66
2023/01/08 03:18:26;;;;;;;;;;;11.20;99.90;;;;;;5074978;28;20028;-65
2023/01/08 03:20:54;;;;;;;24.35;2.88;;;11.10;99.90;;;;;;5073407;28;20440;-66
2023/01/08 03:23:21;;;;;;;24.23;2.95;;;11.10;99.90;;;;;;5074068;28;20024;-66
2023/01/08 03:25:48;;;;;;;13.55;2.80;;;11.10;99.90;;;;;;5073616;28;20025;-65
2023/01/08 03:28:29;;;;;;;17.40;3.13;;;11.10;99.90;;;;;;5073278;28;20516;-66
2023/01/08 03:30:56;;;;;;;18.70;2.60;;;11.10;99.90;;;;;;5072337;28;20098;-66
2023/01/08 03:33:24;;;;;;;17.38;2.03;;;11.10;99.90;;;;;;5073375;28;20556;-66
2023/01/08 03:35:53;;;;;;;17.25;2.85;;;11.20;99.90;;;;;;5073185;28;20186;-66
2023/01/08 03:38:31;;;;;;;18.05;3.20;;;11.20;99.90;;;;;;5072873;28;20443;-66
2023/01/08 03:41:02;;;;;;;14.23;2.05;;;11.30;99.90;;;;;;5072745;28;20032;-66
2023/01/08 03:43:29;;;;;;;23.63;3.43;;;11.30;99.90;;;;;;5072816;28;20055;-66
2023/01/08 03:46:02;;;;;;;11.90;2.05;;;11.30;99.90;;;;;;5072738;28;20035;-66
2023/01/08 03:48:30;;;;;;;24.63;2.60;;;11.30;99.90;;;;;;5072811;28;20044;-66
2023/01/08 03:50:55;;;;;;;21.30;2.92;;;11.30;99.90;;;;;;5072484;28;20071;-65
2023/01/08 03:53:21;;;;;;;27.60;4.88;;;11.30;99.90;;;;;;5072662;28;20045;-65
2023/01/08 03:55:47;;;;;;;25.08;2.78;;;11.40;99.90;;;;;;5071232;28;20037;-66
2023/01/08 03:58:12;;;;;;;20.25;2.83;;;11.50;99.90;;;;;;5072479;28;20104;-67
2023/01/08 04:00:39;;;;;;;15.13;2.75;;;11.50;99.90;;;;;;5072498;28;20034;-66
2023/01/08 04:03:04;;;;;;;24.25;2.95;;;11.50;99.90;;;;;;5071782;28;20032;-66
2023/01/08 04:05:30;;;;;;;12.80;2.58;;;11.40;99.90;;;;;;5072305;28;20085;-66
2023/01/08 04:07:56;;;;;;;23.13;3.90;;;11.40;99.90;;;;;;5072030;28;20027;-66
2023/01/08 04:10:23;;;;;;;17.48;2.67;;;11.40;99.90;;;;;;5072255;28;20036;-66
2023/01/08 04:12:49;;;;;;;24.55;2.80;;;11.30;99.90;;;;;;5072071;28;20074;-65
2023/01/08 04:15:15;;;;;;;17.58;2.85;;;11.30;99.90;;;;;;5072063;28;20132;-66
2023/01/08 04:17:41;;;;;;;20.63;3.53;;;11.20;99.90;;;;;;5072049;28;20187;-65
2023/01/08 04:20:08;;;;;;;16.50;2.47;;;11.20;99.90;;;;;;5072166;28;20529;-66
2023/01/08 04:22:34;;;;;;;24.27;2.90;;;11.20;99.90;;;;;;5072245;28;20033;-66
2023/01/08 04:24:59;;;;;;;24.95;2.63;;;11.20;99.90;;;;;;5071803;28;20031;-67
2023/01/08 04:27:25;;;;;;;24.45;3.97;;;11.20;99.90;;;;;;5071924;28;20097;-66
2023/01/08 04:29:51;;;;;;;22.80;3.15;;;11.20;99.90;;;;;;5072007;28;20028;-66
2023/01/08 04:32:16;;;;;;;8.93;1.75;;;11.20;99.90;;;;;;5072130;28;20028;-66
2023/01/08 04:34:42;;;;;;;24.13;3.00;;;11.20;99.90;;;;;;5071974;28;20109;-66
2023/01/08 04:37:08;;;;;;;22.13;2.55;;;11.20;99.90;;;;;;5071730;28;20025;-66
2023/01/08 04:39:33;;;;;;;17.88;2.60;;;11.30;99.90;;;;;;5071609;28;20032;-66
2023/01/08 04:41:59;;;;;;;19.85;2.72;;;11.40;99.90;;;;;;5071667;28;20036;-66
2023/01/08 04:44:25;;;;;;;13.02;2.22;;;11.40;99.90;;;;;;5071738;28;20042;-66
2023/01/08 04:46:50;;;;;;;23.85;3.28;;;11.40;99.90;;;;;;5071615;28;20033;-66
2023/01/08 04:49:16;;;;;;;20.17;3.50;;;11.40;99.90;;;;;;5071590;28;20029;-67
2023/01/08 04:51:42;;;;;;;26.38;3.67;;;11.40;99.90;;;;;;5071306;28;20115;-66
2023/01/08 04:54:07;;;;;;;24.80;3.67;;;11.30;99.90;;;;;;5071668;28;20505;-66
2023/01/08 04:56:33;;;;;;;14.38;3.10;;;11.30;99.90;;;;;;5071296;28;20028;-67
2023/01/08 04:58:59;;;;;;;13.25;1.85;;;11.30;99.90;;;;;;5071445;28;20028;-66
2023/01/08 05:01:27;;;;;;;32.45;3.22;;;11.30;99.90;;;;;;5071284;28;20028;-66
2023/01/08 05:03:58;;;;;;;14.60;3.05;;;11.40;99.90;;;;;;5071332;28;20024;-66
2023/01/08 05:06:25;;;;;;;20.30;2.97;;;11.40;99.90;;;;;;5071396;28;20485;-67
2023/01/08 05:08:51;;;;;;;33.90;3.85;;;11.40;99.90;;;;;;5071613;28;20522;-67
2023/01/08 05:11:16;;;;;;;21.75;2.83;;;11.40;99.90;;;;;;5071176;28;20089;-66
2023/01/08 05:13:42;;;;;;;25.27;3.60;;;11.50;99.90;;;;;;5070697;28;20123;-66
2023/01/08 05:16:08;;;;;;;19.33;3.35;;;11.50;99.90;;;;;;5070724;28;20032;-65
2023/01/08 05:18:34;;;;;;;21.33;2.92;;;11.50;99.90;;;;;;5071312;28;20100;-66
2023/01/08 05:21:04;;;;;;;20.63;2.60;;;11.40;99.90;;;;;;5071177;28;20017;-66
2023/01/08 05:23:31;;;;;;;29.27;3.25;;;11.40;99.90;;;;;;5071486;28;20028;-66
2023/01/08 05:25:58;;;;;;;22.27;3.22;;;11.40;99.90;;;;;;5071020;28;20027;-67
2023/01/08 05:28:24;;;;;;;21.90;3.22;;;11.50;99.90;;;;;;5071262;28;20086;-66
2023/01/08 05:30:49;;;;;;;15.93;2.10;;;11.50;99.90;;;;;;5070921;28;20032;-66
2023/01/08 05:33:15;;;;;;;15.80;2.80;;;11.50;99.90;;;;;;5071223;28;20021;-66
2023/01/08 05:35:41;;;;;;;24.23;3.05;;;11.50;99.90;;;;;;5071022;28;20381;-66
2023/01/08 05:38:07;;;;;;;26.63;3.25;;;11.50;99.90;;;;;;5070789;28;20074;-66
2023/01/08 05:40:32;;;;;;;19.27;3.47;;;11.60;99.90;;;;;;5069775;28;20031;-67
2023/01/08 05:42:59;;;;;;;5.22;0.90;;;11.40;99.90;;;;;;5070968;28;20025;-81
2023/01/08 05:45:25;;;;;;;0.70;0.70;;;10.00;1.00;;;;;;5069890;28;20039;-70
2023/01/08 05:47:50;;;;;;;0.20;0.20;;;9.50;99.90;;;;;;5071026;28;20021;-68
2023/01/08 05:50:16;;;;;;;0.20;0.20;;;10.00;99.90;;;;;;5070962;28;20512;-69
2023/01/08 05:52:42;;;;;;;0.20;0.20;;;10.20;99.90;;;;;;5070859;28;20029;-70
2023/01/08 05:55:08;;;;;;;0.20;0.20;;;10.10;99.90;;;;;;5070892;28;20086;-69
2023/01/08 05:57:34;;;;;;;0.20;0.20;;;10.20;99.90;;;;;;5070841;28;20390;-68
2023/01/08 06:00:00;;;;;;;0.20;0.20;;;10.50;99.90;;;;;;5069702;28;20070;-79
2023/01/08 06:02:25;;;;;;;0.20;0.20;;;14.80;99.90;;;;;;5071070;28;20025;-79
2023/01/08 06:04:51;;;;;;;0.20;0.20;;;14.60;99.90;;;;;;5070742;28;20020;-81
2023/01/08 06:07:17;;;;;;;0.20;0.20;;;14.10;99.90;;;;;;5070985;28;20033;-80
2023/01/08 06:09:42;;;;;;;0.20;0.20;;;13.80;99.90;;;;;;5070929;28;20469;-84
2023/01/08 06:12:08;;;;;;;0.20;0.20;;;13.70;99.90;;;;;;5070889;28;20469;-87
2023/01/08 06:14:34;;;;;;;0.20;0.20;;;13.60;99.90;;;;;;5070714;28;20063;-86
2023/01/08 06:16:59;;;;;;;0.20;0.20;;;13.60;99.90;;;;;;5070972;28;20583;-84
2023/01/08 06:19:25;;;;;;;0.20;0.20;;;13.70;99.90;;;;;;5070854;28;20024;-82
2023/01/08 06:21:51;;;;;;;0.20;0.20;;;13.80;99.90;;;;;;5070823;28;20039;-81
2023/01/08 06:24:16;;;;;;;0.10;0.10;;;13.80;99.90;;;;;;5069477;28;20108;-80
2023/01/08 06:26:42;;;;;;;0.20;0.20;;;13.90;99.90;;;;;;5071703;28;20031;-79
2023/01/08 06:29:08;;;;;;;0.17;0.17;;;13.80;99.90;;;;;;5074395;28;20016;-77
2023/01/08 06:31:33;;;;;;;0.20;0.20;;;13.80;99.90;;;;;;5074492;28;20025;-75
2023/01/08 06:33:59;;;;;;;0.20;0.20;;;13.80;99.90;;;;;;5074262;28;20028;-75
2023/01/08 06:36:25;;;;;;;0.20;0.20;;;13.80;99.90;;;;;;5074434;28;20024;-74
2023/01/08 06:38:50;;;;;;;0.20;0.20;;;13.80;99.90;;;;;;5074074;28;20119;-74
2023/01/08 06:41:16;;;;;;;0.20;0.20;;;13.80;99.90;;;;;;5074203;28;20021;-75
2023/01/08 06:43:42;;;;;;;0.20;0.20;;;13.70;99.90;;;;;;5074299;28;20029;-76
2023/01/08 06:46:08;;;;;;;0.20;0.20;;;13.60;99.90;;;;;;5072802;28;20658;-78
2023/01/08 06:48:35;;;;;;;0.20;0.20;;;13.60;99.90;;;;;;5072736;28;20115;-79
2023/01/08 06:51:02;;;;;;;0.10;0.10;;;13.60;99.90;;;;;;5072712;28;20507;-81
2023/01/08 06:53:28;;;;;;;0.10;0.10;;;13.60;99.90;;;;;;5073996;28;20051;-81
2023/01/08 06:55:56;;;;;;;0.10;0.10;;;13.60;99.90;;;;;;5072732;28;20469;-81
2023/01/08 06:58:25;;;;;;;6.72;1.98;;;13.70;99.90;;;;;;5073843;28;20095;-80
2023/01/08 07:00:51;;;;;;;0.20;0.20;;;13.70;99.90;;;;;;5073921;28;20025;-79
2023/01/08 07:03:17;;;;;;;0.13;0.13;;;13.80;99.90;;;;;;5073672;28;20016;-79
2023/01/08 07:05:43;;;;;;;0.10;0.10;;;13.90;99.90;;;;;;5073838;28;20153;-79
2023/01/08 07:08:16;;;;;;;0.20;0.20;;;13.90;99.90;;;;;;5073605;28;20024;-80
2023/01/08 07:10:43;;;;;;;0.20;0.20;;;13.90;99.90;;;;;;5073548;28;20028;-81
2023/01/08 07:13:09;;;;;;;0.13;0.13;;;14.00;99.90;;;;;;5072183;28;20041;-81
2023/01/08 07:15:36;;;;;;;0.20;0.20;;;14.10;99.90;;;;;;5073565;28;20063;-82
2023/01/08 07:18:09;;;;;;;0.20;0.20;;;14.20;99.90;;;;;;5073433;28;20056;-83
2023/01/08 07:20:34;;;;;;;0.25;0.25;;;14.40;99.90;;;;;;5073320;28;20028;-86
2023/01/08 07:23:05;;;;;;;0.20;0.20;;;14.40;99.90;;;;;;5070693;28;20020;-87
2023/01/08 07:25:31;;;;;;;0.20;0.20;;;14.50;99.90;;;;;;5073476;28;20032;-92
2023/01/08 07:27:57;;;;;;;0.20;0.20;;;14.50;99.90;;;;;;5087557;28;20035;-88
2023/01/08 07:30:23;;;;;;;0.20;0.20;;;14.40;99.90;;;;;;5078101;28;20032;-86
2023/01/08 07:32:48;;;;;;;0.20;0.20;;;14.40;99.90;;;;;;5075497;28;20020;-86
2023/01/08 07:35:14;;;;;;;0.20;0.20;;;14.50;99.90;;;;;;5082958;28;20025;-84
2023/01/08 07:37:41;;;;;;;0.20;0.20;;;14.50;99.90;;;;;;5081057;28;20473;-87
2023/01/08 07:40:09;;;;;;;0.20;0.20;;;14.40;99.90;;;;;;5086340;28;20055;-89
2023/01/08 07:42:34;;;;;;;0.20;0.20;;;14.30;99.90;;;;;;5094958;28;20032;-90
2023/01/08 07:45:00;;;;;;;0.30;0.30;;;14.30;99.90;;;;;;5085679;28;20153;-90
2023/01/08 07:47:26;;;;;;;0.20;0.20;;;14.30;99.90;;;;;;5074555;28;20035;-85
2023/01/08 07:49:52;;;;;;;0.20;0.20;;;14.40;99.90;;;;;;5071911;28;20025;-81
2023/01/08 07:52:17;;;;;;;0.10;0.10;;;14.40;99.90;;;;;;5072910;28;20050;-77
2023/01/08 07:54:43;;;;;;;0.20;0.20;;;14.40;99.90;;;;;;5072593;28;20458;-77
2023/01/08 07:57:09;;;;;;;0.20;0.20;;;14.50;99.90;;;;;;5073400;28;20105;-75
2023/01/08 07:59:34;;;;;;;0.20;0.20;;;14.50;99.90;;;;;;5073162;28;20477;-73
2023/01/08 08:02:00;;;;;;;0.20;0.20;;;14.50;99.90;;;;;;5072326;28;20047;-71
2023/01/08 08:04:26;;;;;;;0.20;0.20;;;14.50;99.90;;;;;;5072423;28;20086;-72
2023/01/08 08:06:53;;;;;;;0.30;0.30;;;14.40;99.90;;;;;;5072567;28;20354;-71
2023/01/08 08:09:19;;;;;;;0.20;0.20;;;14.50;99.90;;;;;;5072456;28;20075;-70
2023/01/08 08:11:45;;;;;;;0.20;0.20;;;14.40;99.90;;;;;;5072179;28;20040;-69
2023/01/08 08:14:10;;;;;;;0.20;0.20;;;14.40;99.90;;;;;;5072399;28;20382;-69
2023/01/08 08:16:36;;;;;;;0.45;0.45;;;14.40;99.90;;;;;;5072497;28;20484;-69
2023/01/08 08:19:02;;;;;;;0.20;0.20;;;14.40;99.90;;;;;;5072218;28;20025;-68
2023/01/08 08:21:29;;;;;;;0.20;0.20;;;14.40;99.90;;;;;;5072267;28;20051;-68
2023/01/08 08:23:55;;;;;;;0.10;0.10;;;14.40;99.90;;;;;;5072257;28;20243;-67
2023/01/08 08:26:21;;;;;;;0.20;0.20;;;14.40;99.90;;;;;;5072250;28;20056;-70
2023/01/08 08:28:47;;;;;;;0.20;0.20;;;14.40;99.90;;;;;;5072266;28;20017;-68
2023/01/08 08:31:13;;;;;;;0.40;0.40;;;14.40;99.90;;;;;;5072104;28;20046;-68
2023/01/08 08:33:39;;;;;;;0.20;0.20;;;14.40;99.90;;;;;;5072013;28;20024;-68
2023/01/08 08:36:05;;;;;;;0.20;0.20;;;14.30;99.90;;;;;;5072421;28;20024;-68
2023/01/08 08:38:30;;;;;;;0.20;0.20;;;14.30;99.90;;;;;;5072184;28;20042;-67
2023/01/08 08:40:56;;;;;;;0.20;0.20;;;14.40;99.90;;;;;;5071910;28;20509;-68
2023/01/08 08:43:22;;;;;;;0.20;0.20;;;14.40;99.90;;;;;;5064476;28;20036;-68
2023/01/08 08:45:47;;;;;;;0.50;0.50;;;14.40;99.90;;;;;;5065004;28;20064;-68
2023/01/08 08:48:15;;;;;;;0.20;0.20;;;14.40;99.90;;;;;;5059529;28;20409;-67
2023/01/08 08:50:41;;;;;;;0.20;0.20;;;14.50;99.90;;;;;;5062384;28;20048;-67
2023/01/08 08:53:08;;;;;;;0.20;0.20;;;14.60;99.90;;;;;;5067699;28;20028;-67
2023/01/08 08:55:34;;;;;;;0.20;0.20;;;14.70;99.90;;;;;;5064994;28;20673;-67
2023/01/08 08:58:06;;;;;;;0.20;0.20;;;14.70;99.90;;;;;;5051326;28;20264;-67
2023/01/08 09:00:32;;;;;;;0.20;0.20;;;14.80;99.90;;;;;;5054879;28;20477;-67
2023/01/08 09:02:57;;;;;;;0.20;0.20;;;14.80;99.90;;;;;;5071363;28;20642;-68
2023/01/08 09:05:23;;;;;;;0.93;0.93;;;14.80;99.90;;;;;;5056767;28;20035;-67
2023/01/08 09:07:49;;;;;;;0.20;0.20;;;14.70;99.90;;;;;;5059379;28;20090;-68
2023/01/08 09:10:15;;;;;;;0.20;0.20;;;14.70;99.90;;;;;;5071180;28;20258;-67
2023/01/08 09:12:41;;;;;;;0.15;0.15;;;14.70;99.90;;;;;;5064622;28;20029;-67
2023/01/08 09:15:07;;;;;;;0.20;0.20;;;14.70;99.90;;;;;;5070862;28;20097;-66
2023/01/08 09:17:33;;;;;;;0.20;0.20;;;14.70;99.90;;;;;;5065413;28;20021;-66
2023/01/08 09:19:58;;;;;;;0.20;0.20;;;14.70;99.90;;;;;;5052597;28;20021;-66
2023/01/08 09:22:24;;;;;;;0.15;0.15;;;14.60;99.90;;;;;;5054912;28;20094;-66
2023/01/08 09:24:50;;;;;;;0.40;0.40;;;14.50;99.90;;;;;;5058476;28;20105;-66
2023/01/08 09:27:15;;;;;;;0.43;0.43;;;14.40;99.90;;;;;;5056858;28;20037;-68
2023/01/08 09:29:41;;;;;;;0.20;0.20;;;14.40;99.90;;;;;;5068079;28;20029;-67
2023/01/08 09:32:07;;;;;;;0.45;0.45;;;14.30;99.90;;;;;;5066455;28;20029;-66
2023/01/08 09:34:35;;;;;;;0.20;0.20;;;14.30;99.90;;;;;;5063155;28;20082;-67
2023/01/08 09:37:01;;;;;;;1.00;1.00;;;14.30;99.90;;;;;;5070420;28;20020;-65
2023/01/08 09:39:27;;;;;;;0.20;0.20;;;14.30;99.90;;;;;;5052406;28;20021;-66
2023/01/08 09:41:54;;;;;;;0.20;0.20;;;14.40;99.90;;;;;;5054025;28;20032;-66
2023/01/08 09:44:24;;;;;;;0.85;0.85;;;14.40;99.90;;;;;;5061895;28;20035;-67
2023/01/08 09:46:54;;;;;;;0.20;0.20;;;14.40;99.90;;;;;;5060477;28;20020;-66
2023/01/08 09:49:39;;;;;;;0.20;0.20;;;14.40;99.90;;;;;;5069692;28;20530;-67
2023/01/08 09:52:05;;;;;;;0.20;0.20;;;14.40;99.90;;;;;;5065869;28;20036;-66
2023/01/08 09:54:31;;;;;;;0.20;0.20;;;14.50;99.90;;;;;;5063323;28;20489;-66
2023/01/08 09:56:58;;;;;;;0.20;0.20;;;14.50;99.90;;;;;;5053086;28;20032;-67
2023/01/08 09:59:25;;;;;;;0.20;0.20;;;14.60;99.90;;;;;;5050712;28;20100;-67
2023/01/08 10:01:51;;;;;;;1.25;1.25;;;14.60;99.90;;;;;;5055974;28;20025;-67
2023/01/08 10:04:25;;;;;;;0.20;0.20;;;14.60;99.90;;;;;;5054455;28;20025;-67
2023/01/08 10:07:10;;;;;;;0.25;0.25;;;14.60;99.90;;;;;;5053860;28;20017;-66
2023/01/08 10:09:36;;;;;;;0.20;0.20;;;14.70;99.90;;;;;;5060263;28;20036;-66
2023/01/08 10:12:04;;;;;;;4.18;1.65;;;14.70;99.90;;;;;;5054468;28;20125;-67
2023/01/08 10:14:37;;;;;;;0.20;0.20;;;14.70;99.90;;;;;;5067211;28;20040;-66
2023/01/08 10:17:29;;;;;;;2.15;2.05;;;14.80;99.90;;;;;;5073303;28;20029;-65
2023/01/08 10:19:55;;;;;;;1.00;1.00;;;14.90;99.90;;;;;;5064202;28;20243;-67
2023/01/08 10:22:24;;;;;;;0.20;0.20;;;15.00;99.90;;;;;;5054139;28;20642;-65
2023/01/08 10:24:51;;;;;;;0.52;0.52;;;14.90;99.90;;;;;;5052827;28;20053;-66
2023/01/08 10:27:21;;;;;;;0.13;0.13;;;14.90;99.90;;;;;;5054858;28;20112;-65
2023/01/08 10:29:48;;;;;;;0.20;0.20;;;14.90;99.90;;;;;;5053931;28;20021;-65
2023/01/08 10:32:33;;;;;;;0.20;0.20;;;14.80;99.90;;;;;;5053550;28;20059;-66
2023/01/08 10:35:04;;;;;;;0.47;0.47;;;14.80;99.90;;;;;;5054208;28;20021;-66
2023/01/08 10:37:38;;;;;;;0.20;0.20;;;14.80;99.90;;;;;;5053690;28;20079;-66
2023/01/08 10:40:31;;;;;;;0.20;0.20;;;14.90;99.90;;;;;;5052338;28;20485;-65
2023/01/08 10:43:06;;;;;;;0.28;0.28;;;14.90;99.90;;;;;;5052391;28;20309;-65
2023/01/08 10:45:32;;;;;;;0.20;0.20;;;14.90;99.90;;;;;;5052238;28;20024;-66
2023/01/08 10:48:03;;;;;;;0.20;0.20;;;14.90;99.90;;;;;;5050552;28;20063;-65
2023/01/08 10:50:31;;;;;;;0.20;0.20;;;15.00;99.90;;;;;;5051918;28;20390;-65
2023/01/08 10:53:02;;;;;;;0.20;0.20;;;15.10;99.90;;;;;;5052825;28;20381;-65
2023/01/08 10:55:36;;;;;;;0.40;0.40;;;15.20;99.90;;;;;;5054130;28;20032;-66
2023/01/08 10:58:07;;;;;;;0.20;0.20;;;15.20;99.90;;;;;;5054382;28;20107;-66
2023/01/08 11:00:35;;;;;;;0.20;0.20;;;15.20;99.90;;;;;;5053614;28;20170;-65
2023/01/08 11:03:26;;;;;;;0.20;0.20;;;15.10;99.90;;;;;;5053662;28;20035;-66
2023/01/08 11:05:51;;;;;;;0.20;0.20;;;15.20;99.90;;;;;;5053564;28;20616;-66
2023/01/08 11:08:19;;;;;;;0.13;0.13;;;15.30;99.90;;;;;;5053587;28;20029;-66
2023/01/08 11:10:53;;;;;;;0.20;0.20;;;15.40;99.90;;;;;;5053617;28;20029;-65
2023/01/08 11:13:19;;;;;;;0.20;0.20;;;15.50;99.90;;;;;;5052131;28;20547;-65
2023/01/08 11:15:45;;;;;;;0.30;0.30;;;15.50;99.90;;;;;;5053372;28;20068;-66
2023/01/08 11:18:17;;;;;;;0.20;0.20;;;15.40;99.90;;;;;;5053500;28;20064;-65
2023/01/08 11:20:43;;;;;;;0.22;0.22;;;15.50;99.90;;;;;;5053555;28;20114;-65
2023/01/08 11:23:22;;;;;;;0.80;0.47;;;15.50;99.90;;;;;;5053314;28;20029;-66
2023/01/08 11:25:54;;;;;;;0.25;0.25;;;15.50;99.90;;;;;;5053338;28;20028;-66
2023/01/08 11:28:42;;;;;;;0.20;0.20;;;15.70;99.90;;;;;;5053635;28;20040;-65
2023/01/08 11:31:37;;;;;;;0.20;0.20;;;15.70;99.90;;;;;;5053406;28;20037;-65
2023/01/08 11:34:20;;;;;;;0.20;0.20;;;15.70;99.90;;;;;;5021940;28;20040;-65
2023/01/08 11:36:51;;;;;;;0.98;0.95;;;15.80;99.90;;;;;;5053279;28;20057;-66
2023/01/08 11:39:18;;;;;;;0.20;0.20;;;15.90;99.90;;;;;;5053609;28;20028;-66
2023/01/08 11:41:44;;;;;;;0.20;0.20;;;15.40;99.90;;;;;;5053601;28;20025;-68
2023/01/08 11:45:00;;;;;;;1.20;0.55;;;16.00;99.90;;;;;;5053558;28;20025;-66
2023/01/08 11:47:38;;;;;;;0.20;0.20;;;15.70;99.90;;;;;;5026288;28;20037;-64
2023/01/08 11:50:22;;;;;;;0.40;0.40;;;15.60;99.90;;;;;;5053062;28;20082;-66
2023/01/08 11:53:06;;;;;;;0.20;0.20;;;15.60;99.90;;;;;;5052955;28;20056;-67
2023/01/08 11:55:50;;;;;;;0.25;0.25;;;15.70;99.90;;;;;;5053496;28;20112;-66
2023/01/08 11:58:48;;;;;;;0.20;0.20;;;15.80;99.90;;;;;;5053726;28;20132;-66
2023/01/08 12:01:50;;;;;;;0.20;0.20;;;16.00;99.90;;;;;;5053076;28;20588;-66
2023/01/08 12:04:27;;;;;;;0.60;0.60;;;15.90;99.90;;;;;;5052484;28;20025;-66
2023/01/08 12:07:24;;;;;;;0.20;0.20;;;16.00;99.90;;;;;;5052439;28;20029;-66
2023/01/08 12:09:55;;;;;;;0.20;0.20;;;15.90;99.90;;;;;;5052316;28;20029;-66
2023/01/08 12:12:40;;;;;;;0.30;0.30;;;16.00;99.90;;;;;;5052323;28;20039;-65
2023/01/08 12:15:14;;;;;;;0.20;0.20;;;15.80;99.90;;;;;;5052108;28;20132;-66
2023/01/08 12:18:01;;;;;;;0.20;0.20;;;15.70;99.90;;;;;;5052087;28;20486;-66
2023/01/08 12:20:44;;;;;;;0.20;0.20;;;15.80;99.90;;;;;;5052614;28;20039;-66
2023/01/08 12:23:40;;;;;;;0.35;0.35;;;16.00;99.90;;;;;;5051863;28;20044;-66
2023/01/08 12:26:12;;;;;;;0.20;0.20;;;16.20;99.90;;;;;;5051930;28;20017;-65
2023/01/08 12:28:56;;;;;;;0.20;0.20;;;16.40;99.90;;;;;;5052248;28;20036;-65
2023/01/08 12:31:31;;;;;;;0.35;0.35;;;16.20;99.90;;;;;;5051955;28;20037;-65
2023/01/08 12:34:06;;;;;;;0.30;0.30;;;16.10;99.90;;;;;;5051915;28;20017;-65
2023/01/08 12:36:53;;;;;;;0.90;0.90;;;16.00;99.90;;;;;;5051933;28;20473;-65
2023/01/08 12:39:28;;;;;;;0.68;0.68;;;16.50;99.90;;;;;;5051941;28;20056;-66
2023/01/08 12:42:10;;;;;;;0.20;0.20;;;16.60;99.90;;;;;;5051858;28;20035;-67
2023/01/08 12:44:37;;;;;;;0.77;0.77;;;16.70;99.90;;;;;;5050439;28;20408;-66
2023/01/08 12:47:06;;;;;;;0.20;0.20;;;16.30;99.90;;;;;;5051740;28;20453;-66
2023/01/08 12:50:04;;;;;;;0.20;0.20;;;16.00;99.90;;;;;;5052101;28;20108;-66
2023/01/08 12:52:57;;;;;;;0.20;0.20;;;15.70;99.90;;;;;;5051265;28;20182;-66
2023/01/08 12:55:42;;;;;;;0.20;0.20;;;15.70;99.90;;;;;;5022673;28;20037;-66
2023/01/08 12:58:14;;;;;;;0.20;0.20;;;15.50;99.90;;;;;;5051606;28;20028;-67